createdAt,value
2023-05-12T00:01:21.822Z,98934.03
2023-05-12T00:03:48.754Z,98915.56
2023-05-12T00:06:15.853Z,98921.00
2023-05-12T00:08:42.655Z,98916.25
2023-05-12T00:11:09.392Z,98908.88
2023-05-12T00:13:36.188Z,98909.88
2023-05-12T00:16:03.547Z,98913.88
2023-05-12T00:18:30.789Z,98918.34
2023-05-12T00:20:57.658Z,98917.78
2023-05-12T00:23:24.496Z,98911.34
2023-05-12T00:25:51.273Z,98919.94
2023-05-12T00:28:19.045Z,98904.53
2023-05-12T00:30:45.931Z,98914.81
2023-05-12T00:33:13.291Z,98922.69
2023-05-12T00:35:40.160Z,98911.44
2023-05-12T00:38:07.025Z,98888.78
2023-05-12T00:40:33.935Z,98907.41
2023-05-12T00:43:00.620Z,98917.72
2023-05-12T00:45:29.621Z,98918.66
2023-05-12T00:47:57.344Z,98906.84
2023-05-12T00:50:24.422Z,98908.47
2023-05-12T00:52:52.000Z,98918.72
2023-05-12T00:55:19.100Z,98900.97
2023-05-12T00:57:46.211Z,98917.31
2023-05-12T01:00:13.533Z,98926.69
2023-05-12T01:02:40.618Z,98922.47
2023-05-12T01:05:08.812Z,98914.03
2023-05-12T01:07:36.823Z,98927.97
2023-05-12T01:10:04.016Z,98913.25
2023-05-12T01:12:32.436Z,98936.19
2023-05-12T01:15:05.757Z,98925.00
2023-05-12T01:17:34.551Z,98933.19
2023-05-12T01:20:04.718Z,98930.75
2023-05-12T01:22:33.900Z,98934.59
2023-05-12T01:25:07.889Z,98939.94
2023-05-12T01:27:35.074Z,98939.25
2023-05-12T01:30:04.439Z,98937.22
2023-05-12T01:32:31.315Z,98949.84
2023-05-12T01:34:58.193Z,98944.72
2023-05-12T01:37:26.965Z,98909.66
2023-05-12T01:39:54.259Z,98948.84
2023-05-12T01:42:21.410Z,98951.06
2023-05-12T01:44:48.108Z,98915.59
2023-05-12T01:47:16.105Z,98937.50
2023-05-12T01:49:42.901Z,98931.97
2023-05-12T01:52:09.722Z,98936.13
2023-05-12T01:54:36.432Z,98934.13
2023-05-12T01:57:03.259Z,98917.56
2023-05-12T01:59:30.888Z,98927.22
2023-05-12T02:01:57.641Z,98913.56
2023-05-12T02:04:24.419Z,98911.72
2023-05-12T02:06:52.110Z,98925.00
2023-05-12T02:09:18.956Z,98925.84
2023-05-12T02:11:45.719Z,98910.81
2023-05-12T02:14:12.474Z,98931.81
2023-05-12T02:16:39.305Z,98942.19
2023-05-12T02:19:06.284Z,98946.16
2023-05-12T02:21:33.115Z,98923.09
2023-05-12T02:24:00.033Z,98942.44
2023-05-12T02:26:26.745Z,98932.75
2023-05-12T02:28:53.497Z,98938.38
2023-05-12T02:31:20.288Z,98952.47
2023-05-12T02:33:47.061Z,98954.84
2023-05-12T02:36:13.790Z,98950.84
2023-05-12T02:38:40.522Z,98947.81
2023-05-12T02:41:07.749Z,98933.00
2023-05-12T02:43:34.573Z,98961.41
2023-05-12T02:46:01.670Z,98953.91
2023-05-12T02:48:28.457Z,98907.59
2023-05-12T02:50:55.195Z,98930.75
2023-05-12T02:53:22.007Z,98933.28
2023-05-12T02:55:49.161Z,98935.13
2023-05-12T02:58:15.981Z,98939.94
2023-05-12T03:00:42.792Z,98937.91
2023-05-12T03:03:09.703Z,98941.78
2023-05-12T03:05:36.522Z,98928.81
2023-05-12T03:08:03.424Z,98948.69
2023-05-12T03:10:30.210Z,98946.41
2023-05-12T03:12:56.979Z,98935.50
2023-05-12T03:15:23.682Z,98928.44
2023-05-12T03:17:50.704Z,98933.28
2023-05-12T03:20:17.767Z,98938.25
2023-05-12T03:22:44.724Z,98908.44
2023-05-12T03:25:12.542Z,98925.06
2023-05-12T03:27:39.266Z,98931.66
2023-05-12T03:30:07.113Z,98923.69
2023-05-12T03:32:33.832Z,98939.03
2023-05-12T03:35:00.640Z,98929.75
2023-05-12T03:37:27.374Z,98925.44
2023-05-12T03:39:56.342Z,98935.59
2023-05-12T03:42:24.206Z,98909.13
2023-05-12T03:44:51.963Z,98921.09
2023-05-12T03:47:18.883Z,98932.66
2023-05-12T03:49:45.728Z,98936.97
2023-05-12T03:52:12.800Z,98925.59
2023-05-12T03:54:39.480Z,98927.38
2023-05-12T03:57:06.699Z,98934.13
2023-05-12T03:59:33.677Z,98919.41
2023-05-12T04:02:00.479Z,98927.97
2023-05-12T04:04:27.339Z,98945.78
2023-05-12T04:06:54.384Z,98930.50
2023-05-12T04:09:21.546Z,98927.53
2023-05-12T04:11:48.361Z,98934.28
2023-05-12T04:14:15.038Z,98932.28
2023-05-12T04:16:41.870Z,98942.19
2023-05-12T04:19:08.761Z,98934.72
2023-05-12T04:21:35.818Z,98929.97
2023-05-12T04:24:04.853Z,98941.09
2023-05-12T04:26:31.573Z,98930.50
2023-05-12T04:28:58.266Z,98935.66
2023-05-12T04:31:25.050Z,98950.19
2023-05-12T04:33:52.139Z,98933.31
2023-05-12T04:36:18.881Z,98943.97
2023-05-12T04:38:45.939Z,98926.63
2023-05-12T04:41:12.662Z,98943.50
2023-05-12T04:46:09.059Z,98943.03
2023-05-12T04:48:41.955Z,98931.75
2023-05-12T04:51:08.735Z,98926.16
2023-05-12T04:53:36.425Z,98932.59
2023-05-12T04:56:03.828Z,98934.28
2023-05-12T04:58:30.565Z,98942.88
2023-05-12T05:00:57.334Z,98938.28
2023-05-12T05:03:24.211Z,98941.03
2023-05-12T05:05:51.010Z,98947.31
2023-05-12T05:08:18.557Z,98950.81
2023-05-12T05:10:45.423Z,98946.63
2023-05-12T05:13:12.223Z,98947.25
2023-05-12T05:15:39.001Z,98961.91
2023-05-12T05:18:06.147Z,98965.44
2023-05-12T05:20:34.498Z,98944.56
2023-05-12T05:23:01.459Z,98957.38
2023-05-12T05:25:28.237Z,98953.19
2023-05-12T05:27:55.856Z,98946.34
2023-05-12T05:30:22.532Z,98954.56
2023-05-12T05:32:49.421Z,98953.25
2023-05-12T05:35:16.110Z,98950.66
2023-05-12T05:37:42.893Z,98949.59
2023-05-12T05:40:10.075Z,98949.03
2023-05-12T05:42:36.889Z,98950.50
2023-05-12T05:45:03.841Z,98948.44
2023-05-12T05:47:32.179Z,98949.13
2023-05-12T05:49:59.112Z,98956.19
2023-05-12T05:52:26.207Z,98947.75
2023-05-12T05:54:52.883Z,98948.19
2023-05-12T05:57:19.626Z,98950.66
2023-05-12T05:59:46.337Z,98950.88
2023-05-12T06:02:13.187Z,98961.00
2023-05-12T06:04:39.996Z,98964.91
2023-05-12T06:07:06.719Z,98962.69
2023-05-12T06:09:33.526Z,98965.53
2023-05-12T06:12:00.333Z,98969.34
2023-05-12T06:14:27.067Z,98965.13
2023-05-12T06:16:53.856Z,98955.47
2023-05-12T06:19:21.129Z,98978.34
2023-05-12T06:21:47.782Z,98960.50
2023-05-12T06:24:14.578Z,98977.50
2023-05-12T06:26:41.286Z,98980.69
2023-05-12T06:29:08.362Z,98977.84
2023-05-12T06:34:22.682Z,98982.16
2023-05-12T06:36:49.967Z,98950.78
2023-05-12T06:39:17.094Z,98955.63
2023-05-12T06:41:44.075Z,98985.53
2023-05-12T06:44:13.382Z,98945.69
2023-05-12T06:46:40.891Z,98993.06
2023-05-12T06:49:08.744Z,98996.13
2023-05-12T06:51:35.952Z,98961.16
2023-05-12T06:54:03.029Z,98963.50
2023-05-12T06:56:30.077Z,99000.09
2023-05-12T06:59:02.053Z,98963.16
2023-05-12T07:01:30.103Z,98949.44
2023-05-12T07:04:03.767Z,99006.63
2023-05-12T07:06:32.079Z,98979.91
2023-05-12T07:08:59.258Z,98991.13
2023-05-12T07:11:26.402Z,98961.09
2023-05-12T07:13:53.269Z,98954.41
2023-05-12T07:16:21.577Z,99007.53
2023-05-12T07:18:48.796Z,98954.25
2023-05-12T07:21:16.154Z,98966.13
2023-05-12T07:23:43.252Z,98981.31
2023-05-12T07:26:10.384Z,98996.28
2023-05-12T07:28:38.656Z,98979.47
2023-05-12T07:31:07.642Z,98974.25
2023-05-12T07:33:35.849Z,98957.06
2023-05-12T07:36:05.155Z,98954.47
2023-05-12T07:38:33.084Z,98976.25
2023-05-12T07:41:00.972Z,98971.25
2023-05-12T07:43:28.527Z,99000.59
2023-05-12T07:45:57.206Z,99007.06
2023-05-12T07:48:24.317Z,98983.13
2023-05-12T07:50:51.215Z,99010.94
2023-05-12T07:53:18.168Z,99004.75
2023-05-12T07:55:45.708Z,98993.28
2023-05-12T07:58:13.168Z,99014.00
2023-05-12T08:00:41.179Z,98978.44
2023-05-12T08:03:08.204Z,98978.63
2023-05-12T08:05:35.257Z,98977.44
2023-05-12T08:08:02.186Z,98996.50
2023-05-12T08:10:30.458Z,98992.59
2023-05-12T08:12:58.538Z,99007.09
2023-05-12T08:15:26.042Z,98979.06
2023-05-12T08:17:53.161Z,98975.22
2023-05-12T08:20:20.526Z,98997.44
2023-05-12T08:22:48.499Z,99017.44
2023-05-12T08:25:16.787Z,98994.06
2023-05-12T08:27:44.066Z,98996.25
2023-05-12T08:30:11.791Z,99001.69
2023-05-12T08:32:39.677Z,98984.50
2023-05-12T08:35:07.141Z,99016.00
2023-05-12T08:37:34.939Z,98996.31
2023-05-12T08:40:03.226Z,98967.69
2023-05-12T08:42:56.119Z,99009.00
2023-05-12T08:45:24.235Z,99016.25
2023-05-12T08:47:52.762Z,99009.66
2023-05-12T08:50:22.882Z,99018.13
2023-05-12T08:52:50.129Z,99029.94
2023-05-12T08:55:18.615Z,99013.06
2023-05-12T08:57:48.540Z,99000.44
2023-05-12T09:00:16.709Z,99023.41
2023-05-12T09:02:53.270Z,99030.13
2023-05-12T09:05:22.673Z,99027.09
2023-05-12T09:07:51.011Z,98995.38
2023-05-12T09:10:34.419Z,99002.47
2023-05-12T09:13:34.341Z,99029.63
2023-05-12T09:16:02.879Z,99034.19
2023-05-12T09:19:06.817Z,99039.22
2023-05-12T09:21:34.829Z,99031.59
2023-05-12T09:24:06.658Z,99040.22
2023-05-12T09:26:54.813Z,99037.03
2023-05-12T09:29:31.251Z,99043.44
2023-05-12T09:32:03.553Z,99018.81
2023-05-12T09:34:33.132Z,99034.19
2023-05-12T09:37:03.804Z,99042.09
2023-05-12T09:39:30.748Z,99052.03
2023-05-12T09:41:57.833Z,99056.41
2023-05-12T09:44:25.959Z,99045.47
2023-05-12T09:46:53.329Z,99023.03
2023-05-12T09:49:27.291Z,99041.41
2023-05-12T09:51:56.983Z,99027.44
2023-05-12T09:54:32.538Z,99007.88
2023-05-12T09:57:01.421Z,99028.94
2023-05-12T09:59:33.046Z,98999.63
2023-05-12T10:02:02.500Z,98986.00
2023-05-12T10:04:33.178Z,99033.00
2023-05-12T10:07:03.706Z,99042.59
2023-05-12T10:09:38.585Z,99019.97
2023-05-12T10:12:23.386Z,98978.09
2023-05-12T10:14:51.167Z,98988.84
2023-05-12T10:17:20.642Z,98989.69
2023-05-12T10:19:49.398Z,99041.91
2023-05-12T10:22:17.890Z,99002.66
2023-05-12T10:24:46.886Z,99061.44
2023-05-12T10:27:18.992Z,99041.59
2023-05-12T10:29:49.307Z,99006.66
2023-05-12T10:32:17.660Z,99008.03
2023-05-12T10:38:04.907Z,99058.25
2023-05-12T10:40:34.171Z,99027.34
2023-05-12T10:43:02.651Z,99033.66
2023-05-12T10:45:36.522Z,99041.38
2023-05-12T10:48:07.711Z,99034.09
2023-05-12T10:50:35.143Z,99024.69
2023-05-12T10:56:29.525Z,99014.91
2023-05-12T10:59:19.694Z,99015.91
2023-05-12T11:01:59.064Z,99026.75
2023-05-12T11:07:35.376Z,99006.19
2023-05-12T11:12:48.436Z,99005.19
2023-05-12T11:15:17.268Z,99054.56
2023-05-12T11:17:44.759Z,99061.94
2023-05-12T11:20:25.176Z,99067.19
2023-05-12T11:22:53.069Z,99066.34
2023-05-12T11:25:20.376Z,99073.78
2023-05-12T11:27:51.468Z,99062.63
2023-05-12T11:30:18.393Z,99068.19
2023-05-12T11:32:45.289Z,99069.38
2023-05-12T11:35:17.664Z,99061.78
2023-05-12T11:37:46.059Z,99063.81
2023-05-12T11:40:23.043Z,99080.34
2023-05-12T11:42:55.991Z,99060.94
2023-05-12T11:45:30.117Z,99076.66
2023-05-12T11:48:11.724Z,99080.50
2023-05-12T11:50:42.653Z,99072.22
2023-05-12T11:53:19.001Z,99092.81
2023-05-12T11:55:59.274Z,99091.78
2023-05-12T11:58:29.983Z,99091.44
2023-05-12T12:00:57.869Z,99092.09
2023-05-12T12:03:25.325Z,99100.53
2023-05-12T12:06:03.625Z,99109.66
2023-05-12T12:08:31.076Z,99102.06
2023-05-12T12:11:03.426Z,99111.34
2023-05-12T12:13:30.436Z,99109.97
2023-05-12T12:15:57.189Z,99104.75
2023-05-12T12:18:24.020Z,99112.00
2023-05-12T12:20:50.742Z,99121.28
2023-05-12T12:23:17.449Z,99110.97
2023-05-12T12:25:44.211Z,99114.19
2023-05-12T12:28:11.134Z,99115.53
2023-05-12T12:30:37.934Z,99120.56
2023-05-12T12:33:04.704Z,99125.28
2023-05-12T12:35:31.490Z,99126.81
2023-05-12T12:56:37.054Z,99129.00
2023-05-12T12:59:04.115Z,99118.50
2023-05-12T13:01:31.203Z,99127.72
2023-05-12T13:04:00.381Z,99128.28
2023-05-12T13:06:27.810Z,99123.84
2023-05-12T13:08:54.619Z,99137.81
2023-05-12T13:11:21.348Z,99122.78
2023-05-12T13:13:48.045Z,99113.34
2023-05-12T13:16:14.776Z,99136.09
2023-05-12T13:18:41.994Z,99122.66
2023-05-12T13:21:08.763Z,99137.31
2023-05-12T13:23:35.736Z,99139.97
2023-05-12T13:26:02.494Z,99127.16
2023-05-12T13:28:29.219Z,99141.38
2023-05-12T13:30:56.462Z,99129.22
2023-05-12T13:33:23.514Z,99134.44
2023-05-12T13:35:50.252Z,99123.31
2023-05-12T13:38:17.640Z,99137.31
2023-05-12T13:40:44.418Z,99142.44
2023-05-12T13:43:11.191Z,99126.06
2023-05-12T13:45:37.889Z,99127.75
2023-05-12T13:48:04.934Z,99137.53
2023-05-12T13:50:33.588Z,99130.34
2023-05-12T13:53:00.613Z,99139.16
2023-05-12T13:55:27.684Z,99147.91
2023-05-12T13:57:54.680Z,99129.94
2023-05-12T14:00:21.804Z,99139.34
2023-05-12T14:02:49.071Z,99133.41
2023-05-12T14:05:16.348Z,99130.78
2023-05-12T14:07:43.077Z,99142.59
2023-05-12T14:10:10.606Z,99140.13
2023-05-12T14:12:37.285Z,99120.22
2023-05-12T14:15:19.815Z,99136.75
2023-05-12T14:17:50.830Z,99140.66
2023-05-12T14:20:17.779Z,99140.75
2023-05-12T14:22:44.513Z,99144.88
2023-05-12T14:25:11.274Z,99145.41
2023-05-12T14:27:38.076Z,99149.88
2023-05-12T14:30:07.544Z,99144.78
2023-05-12T14:32:34.539Z,99148.69
2023-05-12T14:35:01.591Z,99163.13
2023-05-12T14:37:28.308Z,99142.75
2023-05-12T14:40:05.493Z,99144.78
2023-05-12T14:42:32.519Z,99170.69
2023-05-12T14:44:59.432Z,99163.59
2023-05-12T14:47:26.277Z,99137.75
2023-05-12T14:49:53.164Z,99162.75
2023-05-12T14:52:20.007Z,99153.31
2023-05-12T14:54:46.766Z,99177.13
2023-05-12T14:57:13.895Z,99181.09
2023-05-12T14:59:40.698Z,99181.09
2023-05-12T15:02:07.965Z,99182.41
2023-05-12T15:04:34.903Z,99170.84
2023-05-12T15:07:10.862Z,99165.97
2023-05-12T15:09:46.564Z,99175.88
2023-05-12T15:12:13.514Z,99172.59
2023-05-12T15:14:41.189Z,99164.13
2023-05-12T15:17:08.053Z,99166.47
2023-05-12T15:19:35.375Z,99183.09
2023-05-12T15:22:03.545Z,99172.66
2023-05-12T15:24:30.490Z,99167.81
2023-05-12T15:26:58.352Z,99171.75
2023-05-12T15:29:25.397Z,99172.44
2023-05-12T15:31:52.221Z,99174.22
2023-05-12T15:34:20.088Z,99173.63
2023-05-12T15:36:48.932Z,99175.53
2023-05-12T15:39:19.522Z,99160.66
2023-05-12T15:41:47.354Z,99175.59
2023-05-12T15:44:14.054Z,99157.88
2023-05-12T15:46:40.830Z,99166.19
2023-05-12T15:49:07.608Z,99170.78
2023-05-12T15:51:36.498Z,99171.75
2023-05-12T15:54:04.787Z,99173.63
2023-05-12T15:56:32.201Z,99170.31
2023-05-12T15:58:58.887Z,99162.97
2023-05-12T16:01:25.936Z,99166.88
2023-05-12T16:03:54.132Z,99165.50
2023-05-12T16:06:22.151Z,99164.03
2023-05-12T16:08:49.026Z,99172.28
2023-05-12T16:11:15.746Z,99166.19
2023-05-12T16:13:42.596Z,99156.91
2023-05-12T16:16:09.507Z,99159.03
2023-05-12T16:18:36.541Z,99165.59
2023-05-12T16:21:03.726Z,99149.06
2023-05-12T16:23:30.377Z,99158.59
2023-05-12T16:25:57.307Z,99156.19
2023-05-12T16:28:24.133Z,99147.00
2023-05-12T16:30:50.914Z,99154.44
2023-05-12T16:33:17.713Z,99154.75
2023-05-12T16:35:45.509Z,99157.28
2023-05-12T16:38:13.553Z,99156.88
2023-05-12T16:40:40.355Z,99169.38
2023-05-12T16:43:07.168Z,99165.25
2023-05-12T16:45:34.069Z,99170.06
2023-05-12T16:48:00.854Z,99162.44
2023-05-12T16:50:27.630Z,99153.16
2023-05-12T16:52:54.303Z,99164.50
2023-05-12T16:55:21.636Z,99157.66
2023-05-12T16:57:48.560Z,99148.47
2023-05-12T17:00:16.220Z,99163.09
2023-05-12T17:02:42.997Z,99162.19
2023-05-12T17:05:10.006Z,99157.91
2023-05-12T17:07:37.238Z,99157.38
2023-05-12T17:10:04.480Z,99175.00
2023-05-12T17:12:31.359Z,99163.66
2023-05-12T17:15:06.729Z,99165.19
2023-05-12T17:17:34.388Z,99167.13
2023-05-12T17:20:01.162Z,99162.44
2023-05-12T17:22:28.150Z,99167.34
2023-05-12T17:24:54.933Z,99165.28
2023-05-12T17:27:21.739Z,99174.56
2023-05-12T17:29:48.484Z,99187.09
2023-05-12T17:32:15.211Z,99182.09
2023-05-12T17:34:41.996Z,99179.34
2023-05-12T17:37:08.697Z,99165.16
2023-05-12T17:39:35.500Z,99178.72
2023-05-12T17:42:02.277Z,99191.25
2023-05-12T17:44:30.109Z,99186.88
2023-05-12T17:46:57.007Z,99181.41
2023-05-12T17:49:23.797Z,99190.50
2023-05-12T17:51:50.788Z,99190.66
2023-05-12T17:54:17.557Z,99193.03
2023-05-12T17:56:44.771Z,99196.50
2023-05-12T17:59:12.526Z,99189.66
2023-05-12T18:01:39.712Z,99202.19
2023-05-12T18:04:06.603Z,99215.00
2023-05-12T18:06:34.004Z,99211.47
2023-05-12T18:09:00.740Z,99198.41
2023-05-12T18:11:29.225Z,99198.09
2023-05-12T18:13:56.608Z,99212.31
2023-05-12T18:16:29.134Z,99199.66
2023-05-12T18:18:56.721Z,99205.56
2023-05-12T18:21:23.570Z,99204.88
2023-05-12T18:23:50.359Z,99210.31
2023-05-12T18:26:17.325Z,99211.09
2023-05-12T18:28:44.078Z,99208.56
2023-05-12T18:33:40.864Z,99206.63
2023-05-12T18:36:07.718Z,99216.13
2023-05-12T18:38:34.523Z,99210.59
2023-05-12T18:41:01.243Z,99220.59
2023-05-12T18:43:28.149Z,99207.75
2023-05-12T18:45:54.921Z,99218.22
2023-05-12T18:48:21.667Z,99231.09
2023-05-12T18:50:48.711Z,99217.91
2023-05-12T18:53:15.699Z,99220.78
2023-05-12T18:55:42.768Z,99226.25
2023-05-12T18:58:09.590Z,99223.88
2023-05-12T19:00:36.359Z,99231.38
2023-05-12T19:03:03.412Z,99249.63
2023-05-12T19:05:30.413Z,99238.78
2023-05-12T19:07:57.286Z,99228.66
2023-05-12T19:10:24.233Z,99241.72
2023-05-12T19:12:54.576Z,99241.94
2023-05-12T19:15:21.964Z,99236.88
2023-05-12T19:17:49.687Z,99235.91
2023-05-12T19:20:16.597Z,99236.03
2023-05-12T19:22:44.179Z,99238.00
2023-05-12T19:25:11.892Z,99239.84
2023-05-12T19:27:38.669Z,99221.53
2023-05-12T19:30:05.889Z,99256.81
2023-05-12T19:32:33.319Z,99243.69
2023-05-12T19:35:01.040Z,99252.59
2023-05-12T19:37:28.018Z,99251.06
2023-05-12T19:39:54.752Z,99238.22
2023-05-12T19:42:21.660Z,99237.91
2023-05-12T19:44:48.391Z,99243.06
2023-05-12T19:47:15.169Z,99252.94
2023-05-12T19:49:41.870Z,99257.00
2023-05-12T19:54:43.343Z,99244.75
2023-05-12T19:57:10.027Z,99265.59
2023-05-12T19:59:38.127Z,99266.03
2023-05-12T20:02:05.959Z,99266.88
2023-05-12T20:04:32.699Z,99260.53
2023-05-12T20:06:59.437Z,99257.69
2023-05-12T20:09:26.326Z,99258.16
2023-05-12T20:11:53.375Z,99240.25
2023-05-12T20:14:20.126Z,99263.78
2023-05-12T20:16:47.048Z,99253.44
2023-05-12T20:19:13.985Z,99251.50
2023-05-12T20:21:41.745Z,99253.31
2023-05-12T20:24:09.249Z,99250.78
2023-05-12T20:26:36.690Z,99225.53
2023-05-12T20:29:03.439Z,99250.19
2023-05-12T20:31:30.322Z,99244.56
2023-05-12T20:33:57.036Z,99236.84
2023-05-12T20:36:23.765Z,99234.03
2023-05-12T20:38:50.404Z,99236.00
2023-05-12T20:41:17.101Z,99243.56
2023-05-12T20:43:45.956Z,99236.28
2023-05-12T20:46:12.811Z,99240.38
2023-05-12T20:48:39.643Z,99228.13
2023-05-12T20:51:13.454Z,99240.53
2023-05-12T20:53:40.209Z,99243.34
2023-05-12T20:56:08.532Z,99225.84
2023-05-12T20:58:35.452Z,99222.59
2023-05-12T21:01:02.194Z,99229.66
2023-05-12T21:03:29.364Z,99240.25
2023-05-12T21:05:56.069Z,99241.94
2023-05-12T21:08:22.909Z,99235.44
2023-05-12T21:10:49.853Z,99247.97
2023-05-12T21:13:16.685Z,99238.91
2023-05-12T21:15:43.434Z,99249.94
2023-05-12T21:18:10.327Z,99248.09
2023-05-12T21:20:37.425Z,99225.84
2023-05-12T21:23:04.131Z,99237.28
2023-05-12T21:25:30.876Z,99239.06
2023-05-12T21:27:57.608Z,99241.66
2023-05-12T21:30:24.399Z,99245.56
2023-05-12T21:32:51.089Z,99228.81
2023-05-12T21:35:18.889Z,99239.81
2023-05-12T21:37:45.638Z,99246.38
2023-05-12T21:40:12.855Z,99240.16
2023-05-12T21:42:39.554Z,99211.16
2023-05-12T21:45:06.792Z,99242.44
2023-05-12T21:47:33.714Z,99234.09
2023-05-12T21:50:00.937Z,99241.31
2023-05-12T21:52:28.172Z,99231.47
2023-05-12T21:54:54.990Z,99237.06
2023-05-12T21:57:21.745Z,99228.03
2023-05-12T21:59:48.475Z,99236.50
2023-05-12T22:02:15.419Z,99250.63
2023-05-12T22:04:42.175Z,99253.72
2023-05-12T22:07:08.838Z,99231.47
2023-05-12T22:09:35.525Z,99243.81
2023-05-12T22:12:02.318Z,99237.31
2023-05-12T22:14:29.101Z,99243.00
2023-05-12T22:16:56.313Z,99232.94
2023-05-12T22:19:23.232Z,99237.91
2023-05-12T22:21:50.562Z,99235.50
2023-05-12T22:24:17.371Z,99236.69
2023-05-12T22:26:44.115Z,99248.06
2023-05-12T22:29:10.808Z,99242.84
2023-05-12T22:31:37.713Z,99235.50
2023-05-12T22:34:04.541Z,99229.16
2023-05-12T22:36:31.320Z,99221.88
2023-05-12T22:38:57.965Z,99225.78
2023-05-12T22:41:24.878Z,99244.00
2023-05-12T22:43:51.770Z,99223.56
2023-05-12T22:46:18.544Z,99232.75
2023-05-12T22:48:45.440Z,99236.56
2023-05-12T22:51:12.182Z,99228.53
2023-05-12T22:53:41.772Z,99232.06
2023-05-12T22:56:08.755Z,99232.78
2023-05-12T22:58:35.482Z,99247.00
2023-05-12T23:03:33.900Z,99236.19
2023-05-12T23:06:00.849Z,99240.97
2023-05-12T23:08:27.547Z,99237.59
2023-05-12T23:10:54.293Z,99236.88
2023-05-12T23:13:21.144Z,99237.72
2023-05-12T23:15:47.821Z,99246.50
2023-05-12T23:18:14.812Z,99228.88
2023-05-12T23:20:41.490Z,99233.13
2023-05-12T23:23:08.271Z,99248.94
2023-05-12T23:25:35.462Z,99233.69
2023-05-12T23:28:02.161Z,99232.94
2023-05-12T23:30:32.179Z,99218.25
2023-05-12T23:32:59.170Z,99219.41
2023-05-12T23:35:26.584Z,99210.94
2023-05-12T23:37:53.331Z,99230.53
2023-05-12T23:40:20.379Z,99190.91
2023-05-12T23:42:47.195Z,99219.22
2023-05-12T23:45:14.027Z,99226.69
2023-05-12T23:47:40.786Z,99227.97
2023-05-12T23:50:08.543Z,99223.31
2023-05-12T23:52:35.370Z,99230.50
2023-05-12T23:55:02.088Z,99220.50
2023-05-12T23:57:28.794Z,99222.75
2023-05-12T23:59:55.710Z,99222.59
